Waycross, Georgia
Current Conditions -  °F | °C
As of 1:55 AM on Tuesday 21 Oct 2014 (Local Time) from KAYS Reporting Station
Clear Clear  
Wind Chill: 67°   Ceiling: Unl
Heat Index: 67°   Visibility: 7mi
Dew Point: 67°   Wind: 0mph
Humidity: 99%   Direction: NA
Pressure: 29.97"   Gusts: NA
Location:  31.21°N, 82.36°W
Report Text: KAYS 210555Z AUTO 00000KT 7SM CLR 19/19 A2997 RMK AO2 T01940192 10220 20191
Loading
Personal Weather Stations






























Interactive Weather Map
Tropical Storm Tracking
New forecast layout! Learn more

10-Day Weather Forecast

Advertisements
Track Severe Weather on mobile